createdAt,value
2022-08-27T00:01:55.779Z,99760.06
2022-08-27T00:04:58.860Z,99757.06
2022-08-27T00:08:01.568Z,99759.09
2022-08-27T00:11:04.599Z,99763.53
2022-08-27T00:14:07.234Z,99763.66
2022-08-27T00:17:11.103Z,99742.94
2022-08-27T00:20:17.148Z,99760.97
2022-08-27T00:23:20.136Z,99743.75
2022-08-27T00:26:22.764Z,99754.06
2022-08-27T00:29:29.896Z,99749.37
2022-08-27T00:32:32.674Z,99748.72
2022-08-27T00:35:35.826Z,99747.78
2022-08-27T00:38:40.455Z,99743.13
2022-08-27T00:41:48.522Z,99748.56
2022-08-27T00:44:51.249Z,99747.13
2022-08-27T00:47:58.119Z,99737.56
2022-08-27T00:51:01.418Z,99739.81
2022-08-27T00:54:05.869Z,99738.81
2022-08-27T00:57:08.723Z,99744.28
2022-08-27T01:00:16.132Z,99735.41
2022-08-27T01:03:18.793Z,99750.41
2022-08-27T01:06:23.658Z,99750.88
2022-08-27T01:09:27.099Z,99750.28
2022-08-27T01:12:31.835Z,99757.37
2022-08-27T01:15:35.256Z,99755.97
2022-08-27T01:18:39.375Z,99755.53
2022-08-27T01:22:21.875Z,99752.75
2022-08-27T01:25:27.534Z,99758.75
2022-08-27T01:28:37.485Z,99756.97
2022-08-27T01:31:40.912Z,99756.84
2022-08-27T01:34:43.686Z,99755.84
2022-08-27T01:37:49.976Z,99761.03
2022-08-27T01:40:55.927Z,99750.03
2022-08-27T01:43:59.101Z,99762.69
2022-08-27T01:47:02.300Z,99766.34
2022-08-27T01:50:11.309Z,99764.13
2022-08-27T01:53:25.234Z,99767.00
2022-08-27T01:56:28.381Z,99764.78
2022-08-27T01:59:39.719Z,99770.97
2022-08-27T02:02:43.987Z,99774.13
2022-08-27T02:05:48.553Z,99766.91
2022-08-27T02:08:51.211Z,99765.78
2022-08-27T02:11:54.173Z,99757.31
2022-08-27T02:14:56.860Z,99762.63
2022-08-27T02:18:00.526Z,99760.41
2022-08-27T02:21:03.267Z,99752.81
2022-08-27T02:24:06.507Z,99763.25
2022-08-27T02:27:09.646Z,99770.47
2022-08-27T02:30:15.198Z,99769.38
2022-08-27T02:33:18.078Z,99763.34
2022-08-27T02:36:21.230Z,99772.22
2022-08-27T02:39:23.915Z,99767.75
2022-08-27T02:42:27.165Z,99762.38
2022-08-27T02:45:29.801Z,99759.38
2022-08-27T02:48:36.590Z,99765.63
2022-08-27T02:51:39.415Z,99773.16
2022-08-27T02:54:42.483Z,99766.09
2022-08-27T02:57:45.898Z,99774.94
2022-08-27T03:00:48.944Z,99761.16
2022-08-27T03:03:52.143Z,99769.38
2022-08-27T03:06:56.405Z,99768.69
2022-08-27T03:09:59.129Z,99774.22
2022-08-27T03:13:03.216Z,99767.66
2022-08-27T03:16:07.432Z,99784.19
2022-08-27T03:19:11.094Z,99791.62
2022-08-27T03:22:13.740Z,99761.81
2022-08-27T03:25:17.446Z,99783.91
2022-08-27T03:28:26.052Z,99784.16
2022-08-27T03:31:29.474Z,99774.59
2022-08-27T03:34:32.169Z,99777.47
2022-08-27T03:37:35.208Z,99778.59
2022-08-27T03:40:37.942Z,99786.03
2022-08-27T03:43:40.986Z,99779.13
2022-08-27T03:46:44.231Z,99787.56
2022-08-27T03:49:47.196Z,99778.22
2022-08-27T03:52:49.966Z,99780.75
2022-08-27T03:55:52.992Z,99787.72
2022-08-27T03:58:55.657Z,99783.28
2022-08-27T04:01:58.673Z,99788.06
2022-08-27T04:05:01.667Z,99787.19
2022-08-27T04:08:04.329Z,99792.81
2022-08-27T04:11:07.911Z,99803.13
2022-08-27T04:14:26.272Z,99791.94
2022-08-27T04:17:30.094Z,99810.50
2022-08-27T04:20:35.352Z,99800.84
2022-08-27T04:23:40.777Z,99788.84
2022-08-27T04:26:45.787Z,99800.94
2022-08-27T04:29:48.776Z,99806.75
2022-08-27T04:32:54.224Z,99814.31
2022-08-27T04:36:02.485Z,99813.31
2022-08-27T04:39:05.146Z,99816.78
2022-08-27T04:42:08.251Z,99822.62
2022-08-27T04:45:11.365Z,99818.66
2022-08-27T04:48:16.306Z,99811.91
2022-08-27T04:51:20.531Z,99820.66
2022-08-27T04:54:32.324Z,99815.78
2022-08-27T04:57:37.993Z,99815.00
2022-08-27T05:00:46.312Z,99812.78
2022-08-27T05:03:48.975Z,99801.19
2022-08-27T05:06:54.499Z,99825.00
2022-08-27T05:09:57.637Z,99819.88
2022-08-27T05:13:00.501Z,99822.78
2022-08-27T05:16:09.944Z,99824.31
2022-08-27T05:19:16.344Z,99826.19
2022-08-27T05:22:19.027Z,99833.94
2022-08-27T05:25:22.775Z,99833.75
2022-08-27T05:28:27.849Z,99818.94
2022-08-27T05:31:31.284Z,99840.28
2022-08-27T05:34:33.879Z,99829.41
2022-08-27T05:37:37.083Z,99828.56
2022-08-27T05:40:40.641Z,99835.75
2022-08-27T05:43:49.637Z,99829.91
2022-08-27T05:46:53.254Z,99833.09
2022-08-27T05:49:56.671Z,99832.53
2022-08-27T05:52:59.461Z,99833.87
2022-08-27T05:56:02.488Z,99834.88
2022-08-27T05:59:25.283Z,99831.34
2022-08-27T06:02:29.534Z,99836.50
2022-08-27T06:05:32.590Z,99824.47
2022-08-27T06:08:37.016Z,99829.47
2022-08-27T06:11:40.516Z,99827.28
2022-08-27T06:14:43.136Z,99830.09
2022-08-27T06:17:46.155Z,99827.44
2022-08-27T06:20:48.755Z,99830.69
2022-08-27T06:23:53.370Z,99834.44
2022-08-27T06:26:56.722Z,99834.72
2022-08-27T06:29:59.790Z,99843.75
2022-08-27T06:33:02.394Z,99853.50
2022-08-27T06:36:08.640Z,99845.12
2022-08-27T06:39:13.810Z,99852.06
2022-08-27T06:42:16.736Z,99847.69
2022-08-27T06:45:22.995Z,99844.06
2022-08-27T06:48:26.312Z,99842.91
2022-08-27T06:51:35.228Z,99851.84
2022-08-27T06:54:39.860Z,99837.09
2022-08-27T06:57:42.516Z,99858.91
2022-08-27T07:00:48.865Z,99862.06
2022-08-27T07:03:54.021Z,99835.00
2022-08-27T07:06:57.015Z,99858.16
2022-08-27T07:09:59.886Z,99858.03
2022-08-27T07:13:03.326Z,99860.09
2022-08-27T07:16:12.924Z,99866.59
2022-08-27T07:19:16.288Z,99861.22
2022-08-27T07:22:19.496Z,99858.91
2022-08-27T07:25:22.512Z,99862.53
2022-08-27T07:28:26.299Z,99865.91
2022-08-27T07:31:29.492Z,99872.59
2022-08-27T07:34:32.250Z,99875.41
2022-08-27T07:37:40.236Z,99871.59
2022-08-27T07:40:42.818Z,99877.72
2022-08-27T07:44:04.174Z,99878.47
2022-08-27T07:47:07.904Z,99875.91
2022-08-27T07:50:11.262Z,99881.22
2022-08-27T07:53:13.974Z,99883.22
2022-08-27T07:56:18.964Z,99879.78
2022-08-27T07:59:21.929Z,99879.53
2022-08-27T08:02:27.775Z,99874.78
2022-08-27T08:05:31.196Z,99889.53
2022-08-27T08:08:35.308Z,99888.69
2022-08-27T08:11:38.271Z,99889.63
2022-08-27T08:14:40.987Z,99886.47
2022-08-27T08:17:44.487Z,99890.88
2022-08-27T08:20:58.047Z,99898.16
2022-08-27T08:24:02.565Z,99880.31
2022-08-27T08:27:07.674Z,99881.72
2022-08-27T08:30:12.202Z,99892.81
2022-08-27T08:33:15.062Z,99893.81
2022-08-27T08:36:18.102Z,99875.59
2022-08-27T08:39:20.719Z,99896.19
2022-08-27T08:42:28.445Z,99894.72
2022-08-27T08:45:35.332Z,99894.81
2022-08-27T08:48:42.800Z,99898.47
2022-08-27T08:51:45.717Z,99885.75
2022-08-27T08:54:51.674Z,99892.44
2022-08-27T08:58:13.033Z,99899.12
2022-08-27T09:01:20.775Z,99892.31
2022-08-27T09:04:25.868Z,99886.47
2022-08-27T09:07:47.251Z,99895.47
2022-08-27T09:11:13.319Z,99893.94
2022-08-27T09:14:34.688Z,99893.94
2022-08-27T09:17:37.944Z,99890.66
2022-08-27T09:20:45.523Z,99896.28
2022-08-27T09:24:01.887Z,99887.78
2022-08-27T09:27:05.144Z,99886.78
2022-08-27T09:30:21.420Z,99885.75
2022-08-27T09:33:24.374Z,99892.66
2022-08-27T09:36:26.951Z,99892.91
2022-08-27T09:40:27.389Z,99892.91
2022-08-27T09:43:32.025Z,99890.03
2022-08-27T09:46:34.977Z,99891.00
2022-08-27T09:49:38.608Z,99881.22
2022-08-27T09:52:56.839Z,99878.91
2022-08-27T09:56:03.253Z,99883.78
2022-08-27T09:59:07.925Z,99884.75
2022-08-27T10:02:19.602Z,99883.62
2022-08-27T10:05:31.285Z,99888.75
2022-08-27T10:08:48.816Z,99892.38
2022-08-27T10:12:03.572Z,99881.25
2022-08-27T10:15:07.082Z,99883.94
2022-08-27T10:18:19.795Z,99876.63
2022-08-27T10:21:33.841Z,99876.38
2022-08-27T10:25:02.908Z,99864.78
2022-08-27T10:28:30.704Z,99878.87
2022-08-27T10:32:25.515Z,99875.19
2022-08-27T10:35:51.853Z,99869.56
2022-08-27T10:39:19.069Z,99872.09
2022-08-27T10:42:32.598Z,99868.75
2022-08-27T10:45:47.712Z,99875.94
2022-08-27T10:49:14.604Z,99868.88
2022-08-27T10:52:43.260Z,99869.16
2022-08-27T10:55:52.357Z,99866.63
2022-08-27T10:59:13.467Z,99854.75
2022-08-27T11:02:19.286Z,99869.09
2022-08-27T11:05:25.007Z,99861.75
2022-08-27T11:08:36.369Z,99858.56
2022-08-27T11:12:12.796Z,99856.16
2022-08-27T11:15:12.997Z,99853.06
2022-08-27T11:18:42.316Z,99854.34
2022-08-27T11:22:01.291Z,99860.81
2022-08-27T11:25:10.358Z,99855.75
2022-08-27T11:28:14.339Z,99852.88
2022-08-27T11:31:21.091Z,99850.00
2022-08-27T11:34:32.962Z,99848.84
2022-08-27T11:38:29.912Z,99854.97
2022-08-27T11:41:50.399Z,99852.31
2022-08-27T11:45:03.933Z,99850.84
2022-08-27T11:48:21.406Z,99836.53
2022-08-27T11:51:35.071Z,99843.19
2022-08-27T11:55:16.675Z,99837.25
2022-08-27T11:58:20.224Z,99827.16
2022-08-27T12:01:31.755Z,99832.69
2022-08-27T12:04:39.674Z,99831.69
2022-08-27T12:07:46.068Z,99825.09
2022-08-27T12:11:10.778Z,99821.00
2022-08-27T12:14:17.530Z,99813.72
2022-08-27T12:17:36.286Z,99812.91
2022-08-27T12:21:03.033Z,99813.50
2022-08-27T12:24:13.896Z,99813.09
2022-08-27T12:27:24.314Z,99820.34
2022-08-27T12:30:36.873Z,99813.78
2022-08-27T12:33:46.804Z,99801.19
2022-08-27T12:36:52.647Z,99804.50
2022-08-27T12:39:58.882Z,99794.75
2022-08-27T12:43:13.004Z,99797.28
2022-08-27T12:46:19.172Z,99795.44
2022-08-27T12:49:38.975Z,99784.91
2022-08-27T12:52:54.166Z,99777.97
2022-08-27T12:56:20.351Z,99784.28
2022-08-27T12:59:44.117Z,99775.28
2022-08-27T13:03:07.057Z,99767.38
2022-08-27T13:06:33.078Z,99774.72
2022-08-27T13:09:39.304Z,99772.87
2022-08-27T13:12:43.334Z,99771.75
2022-08-27T13:15:56.667Z,99762.78
2022-08-27T13:18:59.944Z,99768.28
2022-08-27T13:22:06.027Z,99767.13
2022-08-27T13:25:30.254Z,99766.53
2022-08-27T13:28:34.884Z,99772.87
2022-08-27T13:31:38.340Z,99771.00
2022-08-27T13:34:41.577Z,99759.53
2022-08-27T13:37:48.286Z,99760.41
2022-08-27T13:41:08.203Z,99764.81
2022-08-27T13:44:32.541Z,99759.91
2022-08-27T13:47:46.634Z,99757.59
2022-08-27T13:50:53.050Z,99745.31
2022-08-27T13:54:16.005Z,99755.94
2022-08-27T13:57:30.294Z,99750.59
2022-08-27T14:00:33.995Z,99745.03
2022-08-27T14:03:47.558Z,99744.13
2022-08-27T14:06:51.295Z,99748.63
2022-08-27T14:09:58.902Z,99747.09
2022-08-27T14:13:15.557Z,99752.78
2022-08-27T14:16:27.559Z,99744.44
2022-08-27T14:19:36.192Z,99740.75
2022-08-27T14:22:39.993Z,99749.28
2022-08-27T14:25:42.556Z,99750.16
2022-08-27T14:28:46.195Z,99756.69
2022-08-27T14:31:49.037Z,99739.31
2022-08-27T14:34:53.339Z,99756.06
2022-08-27T14:37:57.083Z,99749.03
2022-08-27T14:41:00.682Z,99759.56
2022-08-27T14:44:03.859Z,99760.97
2022-08-27T14:47:09.676Z,99755.41
2022-08-27T14:50:14.163Z,99762.38
2022-08-27T14:53:17.523Z,99763.94
2022-08-27T14:56:21.307Z,99757.69
2022-08-27T14:59:25.855Z,99758.88
2022-08-27T15:02:28.685Z,99749.81
2022-08-27T15:05:31.639Z,99765.25
2022-08-27T15:08:34.986Z,99764.59
2022-08-27T15:11:41.678Z,99765.59
2022-08-27T15:14:44.490Z,99768.66
2022-08-27T15:17:47.626Z,99767.41
2022-08-27T15:20:50.486Z,99768.28
2022-08-27T15:24:01.330Z,99763.22
2022-08-27T15:27:04.192Z,99756.66
2022-08-27T15:30:09.941Z,99757.78
2022-08-27T15:33:12.653Z,99758.63
2022-08-27T15:36:15.865Z,99732.59
2022-08-27T15:39:18.477Z,99749.09
2022-08-27T15:42:21.613Z,99734.59
2022-08-27T15:45:25.661Z,99726.47
2022-08-27T15:48:31.345Z,99758.91
2022-08-27T15:51:34.376Z,99756.09
2022-08-27T15:54:37.476Z,99761.75
2022-08-27T15:57:40.276Z,99758.06
2022-08-27T16:00:46.500Z,99756.84
2022-08-27T16:03:50.143Z,99755.47
2022-08-27T16:06:54.919Z,99760.25
2022-08-27T16:09:57.896Z,99757.63
2022-08-27T16:13:00.871Z,99768.88
2022-08-27T16:16:07.093Z,99770.31
2022-08-27T16:19:12.583Z,99754.94
2022-08-27T16:22:19.139Z,99763.06
2022-08-27T16:25:23.374Z,99740.75
2022-08-27T16:28:27.000Z,99743.53
2022-08-27T16:31:30.046Z,99749.94
2022-08-27T16:34:35.587Z,99733.66
2022-08-27T16:37:38.282Z,99747.81
2022-08-27T16:40:46.808Z,99761.72
2022-08-27T16:43:50.043Z,99765.06
2022-08-27T16:46:53.165Z,99765.06
2022-08-27T16:50:22.900Z,99773.50
2022-08-27T16:53:27.688Z,99775.00
2022-08-27T16:56:32.830Z,99778.25
2022-08-27T16:59:39.444Z,99777.16
2022-08-27T17:02:42.618Z,99786.59
2022-08-27T17:05:45.951Z,99781.38
2022-08-27T17:08:53.997Z,99793.84
2022-08-27T17:11:58.594Z,99790.41
2022-08-27T17:15:01.496Z,99802.06
2022-08-27T17:18:04.772Z,99797.13
2022-08-27T17:21:07.720Z,99802.63
2022-08-27T17:24:12.715Z,99801.47
2022-08-27T17:27:17.903Z,99801.81
2022-08-27T17:30:21.132Z,99812.16
2022-08-27T17:33:34.424Z,99819.66
2022-08-27T17:36:37.434Z,99824.59
2022-08-27T17:39:40.153Z,99830.25
2022-08-27T17:42:43.091Z,99832.66
2022-08-27T17:45:45.788Z,99831.66
2022-08-27T17:48:48.771Z,99841.84
2022-08-27T17:51:56.364Z,99837.38
2022-08-27T17:54:59.869Z,99834.16
2022-08-27T17:58:02.547Z,99842.19
2022-08-27T18:01:05.844Z,99842.19
2022-08-27T18:04:14.544Z,99843.56
2022-08-27T18:07:17.611Z,99838.47
2022-08-27T18:10:23.908Z,99850.44
2022-08-27T18:13:27.123Z,99842.03
2022-08-27T18:16:30.239Z,99851.22
2022-08-27T18:19:33.000Z,99851.75
2022-08-27T18:22:38.894Z,99851.00
2022-08-27T18:25:44.392Z,99857.63
2022-08-27T18:28:47.847Z,99857.13
2022-08-27T18:31:50.559Z,99867.16
2022-08-27T18:34:56.348Z,99866.28
2022-08-27T18:37:59.630Z,99860.25
2022-08-27T18:41:03.244Z,99840.16
2022-08-27T18:44:11.539Z,99866.25
2022-08-27T18:47:20.310Z,99857.91
2022-08-27T18:50:24.007Z,99867.41
2022-08-27T18:53:29.756Z,99861.03
2022-08-27T18:56:33.186Z,99876.59
2022-08-27T18:59:36.199Z,99875.53
2022-08-27T19:02:40.767Z,99878.00
2022-08-27T19:05:43.933Z,99869.00
2022-08-27T19:08:47.653Z,99879.72
2022-08-27T19:11:51.941Z,99877.13
2022-08-27T19:14:54.611Z,99870.13
2022-08-27T19:17:59.543Z,99875.28
2022-08-27T19:21:02.689Z,99872.22
2022-08-27T19:24:06.723Z,99877.53
2022-08-27T19:27:09.717Z,99879.72
2022-08-27T19:30:15.432Z,99877.09
2022-08-27T19:33:18.194Z,99881.47
2022-08-27T19:36:23.438Z,99883.81
2022-08-27T19:39:30.196Z,99880.84
2022-08-27T19:42:33.183Z,99883.78
2022-08-27T19:45:36.502Z,99883.34
2022-08-27T19:48:43.481Z,99901.97
2022-08-27T19:51:46.100Z,99902.72
2022-08-27T19:55:10.181Z,99900.69
2022-08-27T19:58:13.580Z,99908.94
2022-08-27T20:01:16.712Z,99897.28
2022-08-27T20:04:20.552Z,99895.59
2022-08-27T20:07:23.232Z,99901.31
2022-08-27T20:10:36.112Z,99903.94
2022-08-27T20:13:47.896Z,99906.09
2022-08-27T20:16:53.958Z,99901.87
2022-08-27T20:19:58.869Z,99893.63
2022-08-27T20:23:03.711Z,99888.19
2022-08-27T20:26:06.411Z,99895.28
2022-08-27T20:29:11.324Z,99890.97
2022-08-27T20:32:19.514Z,99888.94
2022-08-27T20:35:22.655Z,99897.56
2022-08-27T20:38:25.732Z,99893.87
2022-08-27T20:41:29.318Z,99896.03
2022-08-27T20:44:32.419Z,99893.84
2022-08-27T20:47:35.728Z,99900.34
2022-08-27T20:50:38.854Z,99902.06
2022-08-27T20:53:41.963Z,99893.34
2022-08-27T20:56:52.164Z,99897.50
2022-08-27T21:00:14.605Z,99892.19
2022-08-27T21:03:17.286Z,99903.66
2022-08-27T21:06:23.923Z,99906.44
2022-08-27T21:09:28.816Z,99913.41
2022-08-27T21:12:31.948Z,99919.41
2022-08-27T21:15:34.636Z,99914.69
2022-08-27T21:18:37.695Z,99925.50
2022-08-27T21:21:40.374Z,99928.28
2022-08-27T21:24:43.322Z,99927.28
2022-08-27T21:27:45.944Z,99932.44
2022-08-27T21:30:48.876Z,99925.41
2022-08-27T21:33:51.983Z,99928.41
2022-08-27T21:36:54.997Z,99928.69
2022-08-27T21:39:57.657Z,99925.97
2022-08-27T21:43:01.913Z,99924.28
2022-08-27T21:46:04.713Z,99925.97
2022-08-27T21:49:07.760Z,99929.41
2022-08-27T21:52:10.612Z,99949.56
2022-08-27T21:55:13.683Z,99940.47
2022-08-27T21:58:16.314Z,99937.53
2022-08-27T22:01:19.903Z,99938.44
2022-08-27T22:04:23.160Z,99922.13
2022-08-27T22:07:30.145Z,99945.91
2022-08-27T22:10:33.476Z,99937.25
2022-08-27T22:13:36.813Z,99934.13
2022-08-27T22:16:39.833Z,99939.56
2022-08-27T22:19:42.867Z,99934.47
2022-08-27T22:22:45.805Z,99931.19
2022-08-27T22:25:49.043Z,99928.56
2022-08-27T22:28:52.136Z,99926.34
2022-08-27T22:31:54.753Z,99920.00
2022-08-27T22:34:57.657Z,99913.88
2022-08-27T22:38:00.564Z,99920.25
2022-08-27T22:41:03.739Z,99920.34
2022-08-27T22:44:06.439Z,99923.50
2022-08-27T22:47:10.340Z,99917.25
2022-08-27T22:50:13.346Z,99917.47
2022-08-27T22:53:16.299Z,99922.44
2022-08-27T22:56:19.375Z,99911.16
2022-08-27T22:59:22.587Z,99916.06
2022-08-27T23:02:25.168Z,99916.50
2022-08-27T23:05:28.702Z,99909.94
2022-08-27T23:08:42.947Z,99916.66
2022-08-27T23:11:45.927Z,99904.63
2022-08-27T23:14:48.601Z,99911.88
2022-08-27T23:17:52.369Z,99913.75
2022-08-27T23:20:55.647Z,99901.53
2022-08-27T23:23:58.676Z,99914.97
2022-08-27T23:27:39.734Z,99914.00
2022-08-27T23:30:44.862Z,99916.91
2022-08-27T23:33:52.253Z,99914.91
2022-08-27T23:36:56.237Z,99909.56
2022-08-27T23:39:59.088Z,99907.44
2022-08-27T23:43:02.146Z,99911.34
2022-08-27T23:46:04.998Z,99905.91
2022-08-27T23:49:07.976Z,99908.22
2022-08-27T23:52:12.215Z,99909.00
2022-08-27T23:55:15.237Z,99912.25
2022-08-27T23:58:17.939Z,99913.00
